sensor_id;sensor_type;location;lat;lon;timestamp;temperature;humidity
59469;DHT22;45277;52.768;18.262;2023-01-28T00:00:26;-0.80;99.90
59469;DHT22;45277;52.768;18.262;2023-01-28T00:02:18;-0.80;99.90
59469;DHT22;45277;52.768;18.262;2023-01-28T00:03:50;-0.80;99.90
59469;DHT22;45277;52.768;18.262;2023-01-28T00:05:22;-0.80;99.90
59469;DHT22;45277;52.768;18.262;2023-01-28T00:06:54;-0.80;99.90
59469;DHT22;45277;52.768;18.262;2023-01-28T00:08:26;-0.80;99.90
59469;DHT22;45277;52.768;18.262;2023-01-28T00:09:57;-0.80;99.90
59469;DHT22;45277;52.768;18.262;2023-01-28T00:11:28;-0.80;99.90
59469;DHT22;45277;52.768;18.262;2023-01-28T00:13:00;-0.90;99.90
59469;DHT22;45277;52.768;18.262;2023-01-28T00:14:32;-0.90;99.90
59469;DHT22;45277;52.768;18.262;2023-01-28T00:16:05;-0.90;99.90
59469;DHT22;45277;52.768;18.262;2023-01-28T00:17:38;-0.90;99.90
59469;DHT22;45277;52.768;18.262;2023-01-28T00:19:10;-0.90;99.90
59469;DHT22;45277;52.768;18.262;2023-01-28T00:20:41;-0.90;99.90
59469;DHT22;45277;52.768;18.262;2023-01-28T00:22:13;-0.90;99.90
59469;DHT22;45277;52.768;18.262;2023-01-28T00:24:03;-0.90;99.90
59469;DHT22;45277;52.768;18.262;2023-01-28T00:25:37;-0.90;99.90
59469;DHT22;45277;52.768;18.262;2023-01-28T00:27:08;-1.00;99.90
59469;DHT22;45277;52.768;18.262;2023-01-28T00:28:41;-1.00;99.90
59469;DHT22;45277;52.768;18.262;2023-01-28T00:30:13;-1.00;99.90
59469;DHT22;45277;52.768;18.262;2023-01-28T00:31:45;-1.00;99.90
59469;DHT22;45277;52.768;18.262;2023-01-28T00:33:16;-1.00;99.90
59469;DHT22;45277;52.768;18.262;2023-01-28T00:34:48;-1.00;99.90
59469;DHT22;45277;52.768;18.262;2023-01-28T00:36:22;-1.00;99.90
59469;DHT22;45277;52.768;18.262;2023-01-28T00:37:53;-1.00;99.90
59469;DHT22;45277;52.768;18.262;2023-01-28T00:39:25;-1.00;99.90
59469;DHT22;45277;52.768;18.262;2023-01-28T00:41:19;-1.00;99.90
59469;DHT22;45277;52.768;18.262;2023-01-28T00:42:51;-1.00;99.90
59469;DHT22;45277;52.768;18.262;2023-01-28T00:44:24;-1.00;99.90
59469;DHT22;45277;52.768;18.262;2023-01-28T00:45:56;-1.00;99.90
59469;DHT22;45277;52.768;18.262;2023-01-28T00:47:27;-1.00;99.90
59469;DHT22;45277;52.768;18.262;2023-01-28T00:48:59;-1.00;99.90
59469;DHT22;45277;52.768;18.262;2023-01-28T00:50:31;-1.00;99.90
59469;DHT22;45277;52.768;18.262;2023-01-28T00:52:02;-1.00;99.90
59469;DHT22;45277;52.768;18.262;2023-01-28T00:53:34;-1.00;99.90
59469;DHT22;45277;52.768;18.262;2023-01-28T00:55:07;-1.00;99.90
59469;DHT22;45277;52.768;18.262;2023-01-28T00:56:38;-1.00;99.90
59469;DHT22;45277;52.768;18.262;2023-01-28T00:58:10;-1.00;99.90
59469;DHT22;45277;52.768;18.262;2023-01-28T00:59:42;-1.00;99.90
59469;DHT22;45277;52.768;18.262;2023-01-28T01:01:16;-1.00;99.90
59469;DHT22;45277;52.768;18.262;2023-01-28T01:02:48;-1.00;99.90
59469;DHT22;45277;52.768;18.262;2023-01-28T01:04:20;-1.00;99.90
59469;DHT22;45277;52.768;18.262;2023-01-28T01:05:56;-1.00;99.90
59469;DHT22;45277;52.768;18.262;2023-01-28T01:07:30;-1.00;99.90
59469;DHT22;45277;52.768;18.262;2023-01-28T01:09:13;-0.90;99.90
59469;DHT22;45277;52.768;18.262;2023-01-28T01:10:45;-1.00;99.90
59469;DHT22;45277;52.768;18.262;2023-01-28T01:12:16;-0.90;99.90
59469;DHT22;45277;52.768;18.262;2023-01-28T01:13:56;-0.90;99.90
59469;DHT22;45277;52.768;18.262;2023-01-28T01:15:27;-0.90;99.90
59469;DHT22;45277;52.768;18.262;2023-01-28T01:16:58;-0.90;99.90
59469;DHT22;45277;52.768;18.262;2023-01-28T01:18:30;-0.80;99.90
59469;DHT22;45277;52.768;18.262;2023-01-28T01:20:04;-0.80;99.90
59469;DHT22;45277;52.768;18.262;2023-01-28T01:21:36;-0.80;99.90
59469;DHT22;45277;52.768;18.262;2023-01-28T01:23:07;-0.80;99.90
59469;DHT22;45277;52.768;18.262;2023-01-28T01:24:39;-0.80;99.90
59469;DHT22;45277;52.768;18.262;2023-01-28T01:26:10;-0.80;99.90
59469;DHT22;45277;52.768;18.262;2023-01-28T01:27:42;-0.80;99.90
59469;DHT22;45277;52.768;18.262;2023-01-28T01:29:15;-0.80;99.90
59469;DHT22;45277;52.768;18.262;2023-01-28T01:30:47;-0.90;99.90
59469;DHT22;45277;52.768;18.262;2023-01-28T01:32:19;-1.00;99.90
59469;DHT22;45277;52.768;18.262;2023-01-28T01:33:52;-0.90;99.90
59469;DHT22;45277;52.768;18.262;2023-01-28T01:35:23;-0.90;99.90
59469;DHT22;45277;52.768;18.262;2023-01-28T01:36:56;-0.90;99.90
59469;DHT22;45277;52.768;18.262;2023-01-28T01:38:28;-0.90;99.90
59469;DHT22;45277;52.768;18.262;2023-01-28T01:40:00;-1.00;99.90
59469;DHT22;45277;52.768;18.262;2023-01-28T01:41:35;-1.00;99.90
59469;DHT22;45277;52.768;18.262;2023-01-28T01:43:25;-1.10;99.90
59469;DHT22;45277;52.768;18.262;2023-01-28T01:44:58;-1.10;99.90
59469;DHT22;45277;52.768;18.262;2023-01-28T01:46:40;-1.00;99.90
59469;DHT22;45277;52.768;18.262;2023-01-28T01:48:17;-1.00;99.90
59469;DHT22;45277;52.768;18.262;2023-01-28T01:49:51;-1.00;99.90
59469;DHT22;45277;52.768;18.262;2023-01-28T01:51:30;-1.00;99.90
59469;DHT22;45277;52.768;18.262;2023-01-28T01:53:08;-1.00;99.90
59469;DHT22;45277;52.768;18.262;2023-01-28T01:54:43;-1.00;99.90
59469;DHT22;45277;52.768;18.262;2023-01-28T01:56:19;-0.90;99.90
59469;DHT22;45277;52.768;18.262;2023-01-28T01:57:53;-0.90;99.90
59469;DHT22;45277;52.768;18.262;2023-01-28T01:59:29;-1.00;99.90
59469;DHT22;45277;52.768;18.262;2023-01-28T02:01:02;-0.90;99.90
59469;DHT22;45277;52.768;18.262;2023-01-28T02:02:37;-0.90;99.90
59469;DHT22;45277;52.768;18.262;2023-01-28T02:04:22;-0.90;99.90
59469;DHT22;45277;52.768;18.262;2023-01-28T02:05:55;-0.80;99.90
59469;DHT22;45277;52.768;18.262;2023-01-28T02:07:27;-0.80;99.90
59469;DHT22;45277;52.768;18.262;2023-01-28T02:08:58;-0.80;99.90
59469;DHT22;45277;52.768;18.262;2023-01-28T02:10:30;-0.80;99.90
59469;DHT22;45277;52.768;18.262;2023-01-28T02:13:44;-0.80;99.90
59469;DHT22;45277;52.768;18.262;2023-01-28T02:15:19;-0.80;99.90
59469;DHT22;45277;52.768;18.262;2023-01-28T02:16:50;-0.80;99.90
59469;DHT22;45277;52.768;18.262;2023-01-28T02:18:22;-0.80;99.90
59469;DHT22;45277;52.768;18.262;2023-01-28T02:20:06;-0.80;99.90
59469;DHT22;45277;52.768;18.262;2023-01-28T02:22:03;-0.80;99.90
59469;DHT22;45277;52.768;18.262;2023-01-28T02:31:46;-0.80;99.90
59469;DHT22;45277;52.768;18.262;2023-01-28T02:37:52;-0.80;99.90
59469;DHT22;45277;52.768;18.262;2023-01-28T02:39:40;-0.90;99.90
59469;DHT22;45277;52.768;18.262;2023-01-28T02:41:27;-1.00;99.90
59469;DHT22;45277;52.768;18.262;2023-01-28T02:43:00;-1.00;99.90
59469;DHT22;45277;52.768;18.262;2023-01-28T02:44:31;-0.90;99.90
59469;DHT22;45277;52.768;18.262;2023-01-28T02:48:02;-0.90;99.90
59469;DHT22;45277;52.768;18.262;2023-01-28T02:53:19;-0.90;99.90
59469;DHT22;45277;52.768;18.262;2023-01-28T02:55:20;-0.90;99.90
59469;DHT22;45277;52.768;18.262;2023-01-28T02:59:00;-0.90;99.90
59469;DHT22;45277;52.768;18.262;2023-01-28T03:07:00;-1.00;99.90
59469;DHT22;45277;52.768;18.262;2023-01-28T03:10:30;-1.00;99.90
59469;DHT22;45277;52.768;18.262;2023-01-28T03:12:22;-0.90;99.90
59469;DHT22;45277;52.768;18.262;2023-01-28T03:14:14;-0.90;99.90
59469;DHT22;45277;52.768;18.262;2023-01-28T03:16:05;-1.00;99.90
59469;DHT22;45277;52.768;18.262;2023-01-28T03:19:52;-1.00;99.90
59469;DHT22;45277;52.768;18.262;2023-01-28T03:21:43;-1.00;99.90
59469;DHT22;45277;52.768;18.262;2023-01-28T03:23:40;-1.00;99.90
59469;DHT22;45277;52.768;18.262;2023-01-28T03:25:33;-0.90;99.90
59469;DHT22;45277;52.768;18.262;2023-01-28T03:30:23;-1.00;99.90
59469;DHT22;45277;52.768;18.262;2023-01-28T03:32:16;-1.00;99.90
59469;DHT22;45277;52.768;18.262;2023-01-28T03:34:08;-1.00;99.90
59469;DHT22;45277;52.768;18.262;2023-01-28T03:35:59;-1.00;99.90
59469;DHT22;45277;52.768;18.262;2023-01-28T03:37:50;-1.10;99.90
59469;DHT22;45277;52.768;18.262;2023-01-28T03:39:26;-1.00;99.90
59469;DHT22;45277;52.768;18.262;2023-01-28T03:41:00;-1.00;99.90
59469;DHT22;45277;52.768;18.262;2023-01-28T03:42:33;-1.00;99.90
59469;DHT22;45277;52.768;18.262;2023-01-28T03:44:04;-1.00;99.90
59469;DHT22;45277;52.768;18.262;2023-01-28T03:45:54;-1.00;99.90
59469;DHT22;45277;52.768;18.262;2023-01-28T03:47:28;-1.00;99.90
59469;DHT22;45277;52.768;18.262;2023-01-28T03:49:00;-1.00;99.90
59469;DHT22;45277;52.768;18.262;2023-01-28T03:50:31;-1.00;99.90
59469;DHT22;45277;52.768;18.262;2023-01-28T03:52:03;-1.00;99.90
59469;DHT22;45277;52.768;18.262;2023-01-28T03:53:34;-1.00;99.90
59469;DHT22;45277;52.768;18.262;2023-01-28T03:55:06;-1.00;99.90
59469;DHT22;45277;52.768;18.262;2023-01-28T03:56:43;-1.00;99.90
59469;DHT22;45277;52.768;18.262;2023-01-28T03:58:16;-1.00;99.90
59469;DHT22;45277;52.768;18.262;2023-01-28T03:59:47;-1.00;99.90
59469;DHT22;45277;52.768;18.262;2023-01-28T04:01:23;-1.00;99.90
59469;DHT22;45277;52.768;18.262;2023-01-28T04:02:54;-0.90;99.90
59469;DHT22;45277;52.768;18.262;2023-01-28T04:04:25;-0.90;99.90
59469;DHT22;45277;52.768;18.262;2023-01-28T04:06:04;-0.90;99.90
59469;DHT22;45277;52.768;18.262;2023-01-28T04:07:36;-0.90;99.90
59469;DHT22;45277;52.768;18.262;2023-01-28T04:09:08;-0.90;99.90
59469;DHT22;45277;52.768;18.262;2023-01-28T04:10:40;-0.90;99.90
59469;DHT22;45277;52.768;18.262;2023-01-28T04:12:11;-0.90;99.90
59469;DHT22;45277;52.768;18.262;2023-01-28T04:13:43;-0.90;99.90
59469;DHT22;45277;52.768;18.262;2023-01-28T04:15:15;-1.00;99.90
59469;DHT22;45277;52.768;18.262;2023-01-28T04:16:47;-1.00;99.90
59469;DHT22;45277;52.768;18.262;2023-01-28T04:18:19;-0.90;99.90
59469;DHT22;45277;52.768;18.262;2023-01-28T04:19:57;-0.90;99.90
59469;DHT22;45277;52.768;18.262;2023-01-28T04:21:28;-0.90;99.90
59469;DHT22;45277;52.768;18.262;2023-01-28T04:23:00;-1.00;99.90
59469;DHT22;45277;52.768;18.262;2023-01-28T04:24:32;-1.00;99.90
59469;DHT22;45277;52.768;18.262;2023-01-28T04:26:04;-1.00;99.90
59469;DHT22;45277;52.768;18.262;2023-01-28T04:27:35;-0.90;99.90
59469;DHT22;45277;52.768;18.262;2023-01-28T04:29:07;-1.00;99.90
59469;DHT22;45277;52.768;18.262;2023-01-28T04:30:38;-0.90;99.90
59469;DHT22;45277;52.768;18.262;2023-01-28T04:32:09;-0.80;99.90
59469;DHT22;45277;52.768;18.262;2023-01-28T04:33:41;-0.90;99.90
59469;DHT22;45277;52.768;18.262;2023-01-28T04:35:12;-0.80;99.90
59469;DHT22;45277;52.768;18.262;2023-01-28T04:36:44;-0.80;99.90
59469;DHT22;45277;52.768;18.262;2023-01-28T04:38:15;-0.90;99.90
59469;DHT22;45277;52.768;18.262;2023-01-28T04:39:47;-0.90;99.90
59469;DHT22;45277;52.768;18.262;2023-01-28T04:41:19;-0.80;99.90
59469;DHT22;45277;52.768;18.262;2023-01-28T04:42:54;-0.90;99.90
59469;DHT22;45277;52.768;18.262;2023-01-28T04:44:26;-0.90;99.90
59469;DHT22;45277;52.768;18.262;2023-01-28T04:45:57;-0.80;99.90
59469;DHT22;45277;52.768;18.262;2023-01-28T04:47:29;-0.90;99.90
59469;DHT22;45277;52.768;18.262;2023-01-28T04:49:00;-0.90;99.90
59469;DHT22;45277;52.768;18.262;2023-01-28T04:50:33;-0.90;99.90
59469;DHT22;45277;52.768;18.262;2023-01-28T04:52:05;-0.80;99.90
59469;DHT22;45277;52.768;18.262;2023-01-28T04:53:36;-0.80;99.90
59469;DHT22;45277;52.768;18.262;2023-01-28T04:55:08;-0.80;99.90
59469;DHT22;45277;52.768;18.262;2023-01-28T04:56:40;-0.80;99.90
59469;DHT22;45277;52.768;18.262;2023-01-28T04:58:11;-0.80;99.90
59469;DHT22;45277;52.768;18.262;2023-01-28T04:59:43;-0.80;99.90
59469;DHT22;45277;52.768;18.262;2023-01-28T05:01:14;-0.70;99.90
59469;DHT22;45277;52.768;18.262;2023-01-28T05:02:45;-0.70;99.90
59469;DHT22;45277;52.768;18.262;2023-01-28T05:04:17;-0.80;99.90
59469;DHT22;45277;52.768;18.262;2023-01-28T05:05:49;-0.80;99.90
59469;DHT22;45277;52.768;18.262;2023-01-28T05:07:21;-0.90;99.90
59469;DHT22;45277;52.768;18.262;2023-01-28T05:08:52;-0.80;99.90
59469;DHT22;45277;52.768;18.262;2023-01-28T05:10:25;-0.90;99.90
59469;DHT22;45277;52.768;18.262;2023-01-28T05:11:56;-0.80;99.90
59469;DHT22;45277;52.768;18.262;2023-01-28T05:13:28;-0.90;99.90
59469;DHT22;45277;52.768;18.262;2023-01-28T05:15:00;-0.90;99.90
59469;DHT22;45277;52.768;18.262;2023-01-28T05:16:31;-1.00;99.90
59469;DHT22;45277;52.768;18.262;2023-01-28T05:18:04;-0.90;99.90
59469;DHT22;45277;52.768;18.262;2023-01-28T05:19:36;-0.90;99.90
59469;DHT22;45277;52.768;18.262;2023-01-28T05:21:08;-0.80;99.90
59469;DHT22;45277;52.768;18.262;2023-01-28T05:22:40;-0.80;99.90
59469;DHT22;45277;52.768;18.262;2023-01-28T05:24:12;-0.80;99.90
59469;DHT22;45277;52.768;18.262;2023-01-28T05:25:43;-0.80;99.90
59469;DHT22;45277;52.768;18.262;2023-01-28T05:27:15;-0.70;99.90
59469;DHT22;45277;52.768;18.262;2023-01-28T05:28:46;-0.70;99.90
59469;DHT22;45277;52.768;18.262;2023-01-28T05:30:21;-0.70;99.90
59469;DHT22;45277;52.768;18.262;2023-01-28T05:31:52;-0.70;99.90
59469;DHT22;45277;52.768;18.262;2023-01-28T05:33:24;-0.80;99.90
59469;DHT22;45277;52.768;18.262;2023-01-28T05:34:55;-0.80;99.90
59469;DHT22;45277;52.768;18.262;2023-01-28T05:36:27;-0.80;99.90
59469;DHT22;45277;52.768;18.262;2023-01-28T05:37:58;-0.80;99.90
59469;DHT22;45277;52.768;18.262;2023-01-28T05:39:30;-0.80;99.90
59469;DHT22;45277;52.768;18.262;2023-01-28T05:41:01;-0.70;99.90
59469;DHT22;45277;52.768;18.262;2023-01-28T05:42:33;-0.70;99.90
59469;DHT22;45277;52.768;18.262;2023-01-28T05:44:04;-0.70;99.90
59469;DHT22;45277;52.768;18.262;2023-01-28T05:45:36;-0.80;99.90
59469;DHT22;45277;52.768;18.262;2023-01-28T05:47:08;-0.80;99.90
59469;DHT22;45277;52.768;18.262;2023-01-28T05:48:39;-0.80;99.90
59469;DHT22;45277;52.768;18.262;2023-01-28T05:50:12;-0.80;99.90
59469;DHT22;45277;52.768;18.262;2023-01-28T05:51:44;-0.80;99.90
59469;DHT22;45277;52.768;18.262;2023-01-28T05:53:16;-0.80;99.90
59469;DHT22;45277;52.768;18.262;2023-01-28T05:54:47;-0.80;99.90
59469;DHT22;45277;52.768;18.262;2023-01-28T05:56:19;-0.70;99.90
59469;DHT22;45277;52.768;18.262;2023-01-28T05:57:50;-0.70;99.90
59469;DHT22;45277;52.768;18.262;2023-01-28T05:59:21;-0.70;99.90
59469;DHT22;45277;52.768;18.262;2023-01-28T06:00:56;-0.70;99.90
59469;DHT22;45277;52.768;18.262;2023-01-28T06:02:28;-0.70;99.90
59469;DHT22;45277;52.768;18.262;2023-01-28T06:03:59;-0.80;99.90
59469;DHT22;45277;52.768;18.262;2023-01-28T06:05:31;-0.80;99.90
59469;DHT22;45277;52.768;18.262;2023-01-28T06:07:02;-0.70;99.90
59469;DHT22;45277;52.768;18.262;2023-01-28T06:08:33;-0.80;99.90
59469;DHT22;45277;52.768;18.262;2023-01-28T06:10:05;-0.70;99.90
59469;DHT22;45277;52.768;18.262;2023-01-28T06:11:37;-0.70;99.90
59469;DHT22;45277;52.768;18.262;2023-01-28T06:13:08;-0.70;99.90
59469;DHT22;45277;52.768;18.262;2023-01-28T06:14:40;-0.70;99.90
59469;DHT22;45277;52.768;18.262;2023-01-28T06:16:12;-0.70;99.90
59469;DHT22;45277;52.768;18.262;2023-01-28T06:17:43;-0.70;99.90
59469;DHT22;45277;52.768;18.262;2023-01-28T06:19:14;-0.70;99.90
59469;DHT22;45277;52.768;18.262;2023-01-28T06:20:48;-0.70;99.90
59469;DHT22;45277;52.768;18.262;2023-01-28T06:22:19;-0.70;99.90
59469;DHT22;45277;52.768;18.262;2023-01-28T06:23:51;-0.70;99.90
59469;DHT22;45277;52.768;18.262;2023-01-28T06:25:23;-0.70;99.90
59469;DHT22;45277;52.768;18.262;2023-01-28T06:26:54;-0.70;99.90
59469;DHT22;45277;52.768;18.262;2023-01-28T06:28:26;-0.70;99.90
59469;DHT22;45277;52.768;18.262;2023-01-28T06:29:57;-0.70;99.90
59469;DHT22;45277;52.768;18.262;2023-01-28T06:31:28;-0.80;99.90
59469;DHT22;45277;52.768;18.262;2023-01-28T06:33:00;-0.80;99.90
59469;DHT22;45277;52.768;18.262;2023-01-28T06:34:31;-0.70;99.90
59469;DHT22;45277;52.768;18.262;2023-01-28T06:36:03;-0.80;99.90
59469;DHT22;45277;52.768;18.262;2023-01-28T06:37:36;-0.70;99.90
59469;DHT22;45277;52.768;18.262;2023-01-28T06:39:09;-0.70;99.90
59469;DHT22;45277;52.768;18.262;2023-01-28T06:40:41;-0.70;99.90
59469;DHT22;45277;52.768;18.262;2023-01-28T06:42:12;-0.70;99.90
59469;DHT22;45277;52.768;18.262;2023-01-28T06:43:44;-0.70;99.90
59469;DHT22;45277;52.768;18.262;2023-01-28T06:45:15;-0.70;99.90
59469;DHT22;45277;52.768;18.262;2023-01-28T06:46:47;-0.80;99.90
59469;DHT22;45277;52.768;18.262;2023-01-28T06:48:19;-0.70;99.90
59469;DHT22;45277;52.768;18.262;2023-01-28T06:49:50;-0.70;99.90
59469;DHT22;45277;52.768;18.262;2023-01-28T06:51:22;-0.70;99.90
59469;DHT22;45277;52.768;18.262;2023-01-28T06:52:53;-0.80;99.90
59469;DHT22;45277;52.768;18.262;2023-01-28T06:54:25;-0.80;99.90
59469;DHT22;45277;52.768;18.262;2023-01-28T06:55:56;-0.70;99.90
59469;DHT22;45277;52.768;18.262;2023-01-28T06:57:28;-0.70;99.90
59469;DHT22;45277;52.768;18.262;2023-01-28T06:58:59;-0.60;99.90
59469;DHT22;45277;52.768;18.262;2023-01-28T07:00:31;-0.60;99.90
59469;DHT22;45277;52.768;18.262;2023-01-28T07:02:02;-0.60;99.90
59469;DHT22;45277;52.768;18.262;2023-01-28T07:03:35;-0.60;99.90
59469;DHT22;45277;52.768;18.262;2023-01-28T07:05:07;-0.60;99.90
59469;DHT22;45277;52.768;18.262;2023-01-28T07:06:38;-0.50;99.90
59469;DHT22;45277;52.768;18.262;2023-01-28T07:08:09;-0.60;99.90
59469;DHT22;45277;52.768;18.262;2023-01-28T07:09:41;-0.70;99.90
59469;DHT22;45277;52.768;18.262;2023-01-28T07:11:13;-0.60;99.90
59469;DHT22;45277;52.768;18.262;2023-01-28T07:12:44;-0.70;99.90
59469;DHT22;45277;52.768;18.262;2023-01-28T07:14:16;-0.70;99.90
59469;DHT22;45277;52.768;18.262;2023-01-28T07:15:47;-0.80;99.90
59469;DHT22;45277;52.768;18.262;2023-01-28T07:17:19;-0.80;99.90
59469;DHT22;45277;52.768;18.262;2023-01-28T07:18:51;-0.60;99.90
59469;DHT22;45277;52.768;18.262;2023-01-28T07:20:22;-0.50;99.90
59469;DHT22;45277;52.768;18.262;2023-01-28T07:21:53;-0.50;99.90
59469;DHT22;45277;52.768;18.262;2023-01-28T07:23:28;-0.50;99.90
59469;DHT22;45277;52.768;18.262;2023-01-28T07:24:59;-0.50;99.90
59469;DHT22;45277;52.768;18.262;2023-01-28T07:26:31;-0.60;99.90
59469;DHT22;45277;52.768;18.262;2023-01-28T07:28:04;-0.60;99.90
59469;DHT22;45277;52.768;18.262;2023-01-28T07:29:35;-0.60;99.90
59469;DHT22;45277;52.768;18.262;2023-01-28T07:31:07;-0.70;99.90
59469;DHT22;45277;52.768;18.262;2023-01-28T07:32:38;-0.70;99.90
59469;DHT22;45277;52.768;18.262;2023-01-28T07:34:10;-0.70;99.90
59469;DHT22;45277;52.768;18.262;2023-01-28T07:35:41;-0.60;99.90
59469;DHT22;45277;52.768;18.262;2023-01-28T07:37:13;-0.60;99.90
59469;DHT22;45277;52.768;18.262;2023-01-28T07:38:45;-0.60;99.90
59469;DHT22;45277;52.768;18.262;2023-01-28T07:40:16;-0.60;99.90
59469;DHT22;45277;52.768;18.262;2023-01-28T07:41:48;-0.60;99.90
59469;DHT22;45277;52.768;18.262;2023-01-28T07:43:19;-0.50;99.90
59469;DHT22;45277;52.768;18.262;2023-01-28T07:44:51;-0.50;99.90
59469;DHT22;45277;52.768;18.262;2023-01-28T07:46:23;-0.40;99.90
59469;DHT22;45277;52.768;18.262;2023-01-28T07:47:56;-0.40;99.90
59469;DHT22;45277;52.768;18.262;2023-01-28T07:49:28;-0.40;99.90
59469;DHT22;45277;52.768;18.262;2023-01-28T07:51:00;-0.40;99.90
59469;DHT22;45277;52.768;18.262;2023-01-28T07:52:33;-0.30;99.90
59469;DHT22;45277;52.768;18.262;2023-01-28T07:54:14;-0.30;99.90
59469;DHT22;45277;52.768;18.262;2023-01-28T07:55:46;-0.20;99.90
59469;DHT22;45277;52.768;18.262;2023-01-28T07:57:18;-0.20;99.90
59469;DHT22;45277;52.768;18.262;2023-01-28T07:58:53;-0.20;99.90
59469;DHT22;45277;52.768;18.262;2023-01-28T08:00:29;-0.20;99.90
59469;DHT22;45277;52.768;18.262;2023-01-28T08:02:00;-0.20;99.90
59469;DHT22;45277;52.768;18.262;2023-01-28T08:03:32;-0.20;99.90
59469;DHT22;45277;52.768;18.262;2023-01-28T08:05:05;-0.20;99.90
59469;DHT22;45277;52.768;18.262;2023-01-28T08:06:36;-0.20;99.90
59469;DHT22;45277;52.768;18.262;2023-01-28T08:08:09;-0.20;99.90
59469;DHT22;45277;52.768;18.262;2023-01-28T08:09:41;-0.20;99.90
59469;DHT22;45277;52.768;18.262;2023-01-28T08:11:12;-0.20;99.90
59469;DHT22;45277;52.768;18.262;2023-01-28T08:12:54;-0.20;99.90
59469;DHT22;45277;52.768;18.262;2023-01-28T08:14:26;-0.20;99.90
59469;DHT22;45277;52.768;18.262;2023-01-28T08:15:57;-0.20;99.90
59469;DHT22;45277;52.768;18.262;2023-01-28T08:17:29;-0.20;99.90
59469;DHT22;45277;52.768;18.262;2023-01-28T08:19:02;-0.20;99.90
59469;DHT22;45277;52.768;18.262;2023-01-28T08:20:35;-0.10;99.90
59469;DHT22;45277;52.768;18.262;2023-01-28T08:22:07;-0.10;99.90
59469;DHT22;45277;52.768;18.262;2023-01-28T08:23:38;-0.10;99.90
59469;DHT22;45277;52.768;18.262;2023-01-28T08:25:11;-0.10;99.90
59469;DHT22;45277;52.768;18.262;2023-01-28T08:26:47;-0.10;99.90
59469;DHT22;45277;52.768;18.262;2023-01-28T08:28:21;-0.10;99.90
59469;DHT22;45277;52.768;18.262;2023-01-28T08:29:53;0.00;99.90
59469;DHT22;45277;52.768;18.262;2023-01-28T08:31:26;0.00;99.90
59469;DHT22;45277;52.768;18.262;2023-01-28T08:32:59;0.00;99.90
59469;DHT22;45277;52.768;18.262;2023-01-28T08:34:31;0.00;99.90
59469;DHT22;45277;52.768;18.262;2023-01-28T08:36:03;0.00;99.90
59469;DHT22;45277;52.768;18.262;2023-01-28T08:37:35;0.10;99.90
59469;DHT22;45277;52.768;18.262;2023-01-28T08:39:07;0.10;99.90
59469;DHT22;45277;52.768;18.262;2023-01-28T08:40:39;0.10;99.90
59469;DHT22;45277;52.768;18.262;2023-01-28T08:42:11;0.10;99.90
59469;DHT22;45277;52.768;18.262;2023-01-28T08:43:42;0.10;99.90
59469;DHT22;45277;52.768;18.262;2023-01-28T08:45:13;0.10;99.90
59469;DHT22;45277;52.768;18.262;2023-01-28T08:46:45;0.10;99.90
59469;DHT22;45277;52.768;18.262;2023-01-28T08:48:18;0.10;99.90
59469;DHT22;45277;52.768;18.262;2023-01-28T08:49:49;0.10;99.90
59469;DHT22;45277;52.768;18.262;2023-01-28T08:51:21;0.10;99.90
59469;DHT22;45277;52.768;18.262;2023-01-28T08:52:58;0.10;99.90
59469;DHT22;45277;52.768;18.262;2023-01-28T08:54:31;0.10;99.90
59469;DHT22;45277;52.768;18.262;2023-01-28T08:56:03;0.20;99.90
59469;DHT22;45277;52.768;18.262;2023-01-28T08:57:35;0.20;99.90
59469;DHT22;45277;52.768;18.262;2023-01-28T08:59:07;0.20;99.90
59469;DHT22;45277;52.768;18.262;2023-01-28T09:00:40;0.20;99.90
59469;DHT22;45277;52.768;18.262;2023-01-28T09:02:12;0.20;99.90
59469;DHT22;45277;52.768;18.262;2023-01-28T09:03:45;0.20;99.90
59469;DHT22;45277;52.768;18.262;2023-01-28T09:05:17;0.30;99.90
59469;DHT22;45277;52.768;18.262;2023-01-28T09:06:49;0.40;99.90
59469;DHT22;45277;52.768;18.262;2023-01-28T09:08:22;0.50;99.90
59469;DHT22;45277;52.768;18.262;2023-01-28T09:09:54;0.50;99.90
59469;DHT22;45277;52.768;18.262;2023-01-28T09:11:27;0.50;99.90
59469;DHT22;45277;52.768;18.262;2023-01-28T09:13:06;0.50;99.90
59469;DHT22;45277;52.768;18.262;2023-01-28T09:14:39;0.50;99.90
59469;DHT22;45277;52.768;18.262;2023-01-28T09:16:12;0.50;99.90
59469;DHT22;45277;52.768;18.262;2023-01-28T09:17:43;0.40;99.90
59469;DHT22;45277;52.768;18.262;2023-01-28T09:19:15;0.50;99.90
59469;DHT22;45277;52.768;18.262;2023-01-28T09:20:47;0.50;99.90
59469;DHT22;45277;52.768;18.262;2023-01-28T09:22:18;0.50;99.90
59469;DHT22;45277;52.768;18.262;2023-01-28T09:23:50;0.50;99.90
59469;DHT22;45277;52.768;18.262;2023-01-28T09:25:22;0.60;99.90
59469;DHT22;45277;52.768;18.262;2023-01-28T09:26:53;0.50;99.90
59469;DHT22;45277;52.768;18.262;2023-01-28T09:28:26;0.50;99.90
59469;DHT22;45277;52.768;18.262;2023-01-28T09:29:59;0.50;99.90
59469;DHT22;45277;52.768;18.262;2023-01-28T09:31:30;0.50;99.90
59469;DHT22;45277;52.768;18.262;2023-01-28T09:33:03;0.50;99.90
59469;DHT22;45277;52.768;18.262;2023-01-28T09:34:34;0.40;99.90
59469;DHT22;45277;52.768;18.262;2023-01-28T09:36:08;0.50;99.90
59469;DHT22;45277;52.768;18.262;2023-01-28T09:37:41;0.50;99.90
59469;DHT22;45277;52.768;18.262;2023-01-28T09:39:12;0.50;99.90
59469;DHT22;45277;52.768;18.262;2023-01-28T09:40:44;0.50;99.90
59469;DHT22;45277;52.768;18.262;2023-01-28T09:46:17;0.80;99.90
59469;DHT22;45277;52.768;18.262;2023-01-28T09:47:55;0.80;99.90
59469;DHT22;45277;52.768;18.262;2023-01-28T09:49:41;0.80;99.90
59469;DHT22;45277;52.768;18.262;2023-01-28T09:51:44;0.80;99.90
59469;DHT22;45277;52.768;18.262;2023-01-28T09:53:27;0.80;99.90
59469;DHT22;45277;52.768;18.262;2023-01-28T09:55:06;0.80;99.90
59469;DHT22;45277;52.768;18.262;2023-01-28T09:57:00;0.80;99.90
59469;DHT22;45277;52.768;18.262;2023-01-28T09:58:36;0.80;99.90
59469;DHT22;45277;52.768;18.262;2023-01-28T10:03:59;0.80;99.90
59469;DHT22;45277;52.768;18.262;2023-01-28T10:09:41;0.80;99.90
59469;DHT22;45277;52.768;18.262;2023-01-28T10:15:09;0.70;99.90
59469;DHT22;45277;52.768;18.262;2023-01-28T10:17:12;0.80;99.90
59469;DHT22;45277;52.768;18.262;2023-01-28T10:18:55;0.90;99.90
59469;DHT22;45277;52.768;18.262;2023-01-28T10:20:37;0.90;99.90
59469;DHT22;45277;52.768;18.262;2023-01-28T10:22:19;0.90;99.90
59469;DHT22;45277;52.768;18.262;2023-01-28T10:25:33;0.80;99.90
59469;DHT22;45277;52.768;18.262;2023-01-28T10:27:16;0.80;99.90
59469;DHT22;45277;52.768;18.262;2023-01-28T10:28:55;0.80;99.90
59469;DHT22;45277;52.768;18.262;2023-01-28T10:30:31;0.80;99.90
59469;DHT22;45277;52.768;18.262;2023-01-28T10:33:52;0.80;99.90
59469;DHT22;45277;52.768;18.262;2023-01-28T10:35:25;0.70;99.90
59469;DHT22;45277;52.768;18.262;2023-01-28T10:36:59;0.60;99.90
59469;DHT22;45277;52.768;18.262;2023-01-28T10:38:31;0.60;99.90
59469;DHT22;45277;52.768;18.262;2023-01-28T10:40:04;0.60;99.90
59469;DHT22;45277;52.768;18.262;2023-01-28T10:41:38;0.60;99.90